createdAt,value
2023-02-21T00:02:45.338Z,7.00
2023-02-21T00:05:30.763Z,7.00
2023-02-21T00:08:16.464Z,7.00
2023-02-21T00:11:01.900Z,7.00
2023-02-21T00:13:47.473Z,7.00
2023-02-21T00:16:37.858Z,7.00
2023-02-21T00:19:23.478Z,7.00
2023-02-21T00:22:09.150Z,7.00
2023-02-21T00:24:54.936Z,7.00
2023-02-21T00:27:40.723Z,7.00
2023-02-21T00:30:26.649Z,6.90
2023-02-21T00:33:12.342Z,6.90
2023-02-21T00:35:57.588Z,6.90
2023-02-21T00:38:43.126Z,6.90
2023-02-21T00:41:28.766Z,6.90
2023-02-21T00:44:14.156Z,6.90
2023-02-21T00:47:00.164Z,6.90
2023-02-21T00:49:45.724Z,6.80
2023-02-21T00:52:31.435Z,6.90
2023-02-21T00:55:17.066Z,6.80
2023-02-21T00:58:02.464Z,6.80
2023-02-21T01:00:48.092Z,6.80
2023-02-21T01:03:33.526Z,6.80
2023-02-21T01:06:19.154Z,6.80
2023-02-21T01:09:05.577Z,6.80
2023-02-21T01:11:52.482Z,6.80
2023-02-21T01:14:37.945Z,6.80
2023-02-21T01:17:23.444Z,6.80
2023-02-21T01:20:08.758Z,6.80
2023-02-21T01:22:54.344Z,6.80
2023-02-21T01:25:40.054Z,6.80
2023-02-21T01:28:25.835Z,6.80
2023-02-21T01:31:11.366Z,6.80
2023-02-21T01:34:00.534Z,6.80
2023-02-21T01:36:46.389Z,6.80
2023-02-21T01:39:31.992Z,6.80
2023-02-21T01:42:17.504Z,6.80
2023-02-21T01:45:04.750Z,6.80
2023-02-21T01:47:50.140Z,6.80
2023-02-21T01:50:43.427Z,6.80
2023-02-21T01:53:46.909Z,6.80
2023-02-21T01:56:32.816Z,6.80
2023-02-21T01:59:20.264Z,6.80
2023-02-21T02:02:11.387Z,6.80
2023-02-21T02:04:56.741Z,6.90
2023-02-21T02:07:42.359Z,6.80
2023-02-21T02:10:29.009Z,6.80
2023-02-21T02:13:41.937Z,6.80
2023-02-21T02:16:22.623Z,6.80
2023-02-21T02:19:20.008Z,6.80
2023-02-21T02:22:04.592Z,6.80
2023-02-21T02:24:37.015Z,6.80
2023-02-21T02:27:24.547Z,6.80
2023-02-21T02:30:21.384Z,6.80
2023-02-21T02:32:59.864Z,6.80
2023-02-21T02:35:34.199Z,6.80
2023-02-21T02:38:15.814Z,6.80
2023-02-21T02:41:09.909Z,6.80
2023-02-21T02:43:49.830Z,6.80
2023-02-21T02:46:45.594Z,6.80
2023-02-21T02:49:22.066Z,6.80
2023-02-21T02:51:49.856Z,6.80
2023-02-21T02:54:16.818Z,6.80
2023-02-21T02:56:44.635Z,6.70
2023-02-21T02:59:25.817Z,6.70
2023-02-21T03:02:05.456Z,6.60
2023-02-21T03:04:47.418Z,6.60
2023-02-21T03:07:48.486Z,6.60
2023-02-21T03:10:42.769Z,6.50
2023-02-21T03:13:35.619Z,6.60
2023-02-21T03:16:19.640Z,6.60
2023-02-21T03:18:52.263Z,6.60
2023-02-21T03:21:22.650Z,6.60
2023-02-21T03:23:52.863Z,6.70
2023-02-21T03:26:19.965Z,6.70
2023-02-21T03:28:47.830Z,6.70
2023-02-21T03:31:17.858Z,6.70
2023-02-21T03:33:45.363Z,6.70
2023-02-21T03:36:12.650Z,6.70
2023-02-21T03:38:40.625Z,6.70
2023-02-21T03:41:08.643Z,6.70
2023-02-21T03:43:35.222Z,6.70
2023-02-21T03:46:02.216Z,6.70
2023-02-21T03:48:32.305Z,6.60
2023-02-21T03:50:59.855Z,6.60
2023-02-21T03:53:26.834Z,6.60
2023-02-21T03:55:53.608Z,6.60
2023-02-21T03:58:20.227Z,6.60
2023-02-21T04:00:47.294Z,6.60
2023-02-21T04:03:13.961Z,6.60
2023-02-21T04:05:41.044Z,6.60
2023-02-21T04:08:07.648Z,6.60
2023-02-21T04:10:38.194Z,6.60
2023-02-21T04:13:14.031Z,6.50
2023-02-21T04:15:40.714Z,6.50
2023-02-21T04:18:07.646Z,6.50
2023-02-21T04:20:34.272Z,6.50
2023-02-21T04:23:03.624Z,6.50
2023-02-21T04:25:30.472Z,6.50
2023-02-21T04:27:57.325Z,6.50
2023-02-21T04:30:25.015Z,6.50
2023-02-21T04:32:51.709Z,6.50
2023-02-21T04:35:18.850Z,6.50
2023-02-21T04:37:46.175Z,6.50
2023-02-21T04:40:12.869Z,6.50
2023-02-21T04:42:39.860Z,6.50
2023-02-21T04:45:07.260Z,6.50
2023-02-21T04:47:33.888Z,6.50
2023-02-21T04:50:00.587Z,6.50
2023-02-21T04:52:27.541Z,6.50
2023-02-21T04:54:54.413Z,6.50
2023-02-21T04:57:21.297Z,6.50
2023-02-21T04:59:48.164Z,6.50
2023-02-21T05:02:14.861Z,6.50
2023-02-21T05:04:43.403Z,6.50
2023-02-21T05:07:10.028Z,6.50
2023-02-21T05:09:36.616Z,6.50
2023-02-21T05:12:03.632Z,6.50
2023-02-21T05:14:30.468Z,6.50
2023-02-21T05:16:57.099Z,6.50
2023-02-21T05:19:29.894Z,6.40
2023-02-21T05:21:58.331Z,6.40
2023-02-21T05:24:26.644Z,6.40
2023-02-21T05:26:53.689Z,6.30
2023-02-21T05:29:20.631Z,6.30
2023-02-21T05:31:47.799Z,6.20
2023-02-21T05:34:15.818Z,6.20
2023-02-21T05:36:42.618Z,6.10
2023-02-21T05:39:09.845Z,6.00
2023-02-21T05:41:36.790Z,6.00
2023-02-21T05:44:04.280Z,5.90
2023-02-21T05:46:35.506Z,5.90
2023-02-21T05:49:03.726Z,5.80
2023-02-21T05:51:39.428Z,5.80
2023-02-21T05:54:07.704Z,5.70
2023-02-21T05:56:39.686Z,5.60
2023-02-21T05:59:06.936Z,5.60
2023-02-21T06:01:33.774Z,5.60
2023-02-21T06:04:00.429Z,5.50
2023-02-21T06:06:27.484Z,5.50
2023-02-21T06:08:54.205Z,5.40
2023-02-21T06:11:27.277Z,5.40
2023-02-21T06:13:55.775Z,5.40
2023-02-21T06:16:23.014Z,5.30
2023-02-21T06:18:51.733Z,5.30
2023-02-21T06:21:18.883Z,5.30
2023-02-21T06:23:45.624Z,5.30
2023-02-21T06:26:13.706Z,5.30
2023-02-21T06:28:40.564Z,5.30
2023-02-21T06:31:07.287Z,5.30
2023-02-21T06:33:34.555Z,5.30
2023-02-21T06:36:12.018Z,5.30
2023-02-21T06:38:39.098Z,5.30
2023-02-21T06:41:07.376Z,5.30
2023-02-21T06:43:36.343Z,5.30
2023-02-21T06:46:04.791Z,5.30
2023-02-21T06:48:31.630Z,5.30
2023-02-21T06:50:58.244Z,5.40
2023-02-21T06:53:25.103Z,5.50
2023-02-21T06:55:52.451Z,5.50
2023-02-21T06:58:19.487Z,5.50
2023-02-21T07:00:46.075Z,5.60
2023-02-21T07:03:12.641Z,5.60
2023-02-21T07:05:39.265Z,5.70
2023-02-21T07:08:05.992Z,5.70
2023-02-21T07:10:32.907Z,5.80
2023-02-21T07:12:59.713Z,5.80
2023-02-21T07:15:27.246Z,5.90
2023-02-21T07:17:53.915Z,5.90
2023-02-21T07:20:20.577Z,5.90
2023-02-21T07:22:47.354Z,6.00
2023-02-21T07:25:16.433Z,6.10
2023-02-21T07:27:43.235Z,6.20
2023-02-21T07:30:11.957Z,6.30
2023-02-21T07:32:38.627Z,6.40
2023-02-21T07:35:05.802Z,6.50
2023-02-21T07:37:32.683Z,6.60
2023-02-21T07:39:59.599Z,6.70
2023-02-21T07:42:26.248Z,6.80
2023-02-21T07:44:57.580Z,6.90
2023-02-21T07:47:27.926Z,7.00
2023-02-21T07:49:55.105Z,7.20
2023-02-21T07:52:22.801Z,7.30
2023-02-21T07:54:49.692Z,7.40
2023-02-21T07:57:17.494Z,7.50
2023-02-21T07:59:44.937Z,7.60
2023-02-21T08:02:12.563Z,7.70
2023-02-21T08:04:39.942Z,7.90
2023-02-21T08:07:07.021Z,8.10
2023-02-21T08:09:33.810Z,8.40
2023-02-21T08:12:00.878Z,9.00
2023-02-21T08:14:27.976Z,10.20
2023-02-21T08:16:54.898Z,12.00
2023-02-21T08:19:21.775Z,14.40
2023-02-21T08:21:49.886Z,16.30
2023-02-21T08:24:18.235Z,17.70
2023-02-21T08:26:45.521Z,19.10
2023-02-21T08:29:13.586Z,19.10
2023-02-21T08:31:41.704Z,19.20
2023-02-21T08:34:09.153Z,19.60
2023-02-21T08:36:38.398Z,19.00
2023-02-21T08:39:06.033Z,18.30
2023-02-21T08:41:44.532Z,17.60
2023-02-21T08:44:13.976Z,16.70
2023-02-21T08:46:40.822Z,16.30
2023-02-21T08:49:08.166Z,15.50
2023-02-21T08:51:35.671Z,14.90
2023-02-21T08:54:03.587Z,14.10
2023-02-21T08:56:30.748Z,13.50
2023-02-21T08:58:58.137Z,13.00
2023-02-21T09:01:30.314Z,12.70
2023-02-21T09:04:05.577Z,12.50
2023-02-21T09:06:32.765Z,12.30
2023-02-21T09:08:59.441Z,11.90
2023-02-21T09:11:26.115Z,11.70
2023-02-21T09:13:55.006Z,11.40
2023-02-21T09:16:22.504Z,11.50
2023-02-21T09:18:56.832Z,11.70
2023-02-21T09:21:25.024Z,12.20
2023-02-21T09:23:56.682Z,12.60
2023-02-21T09:26:24.289Z,13.10
2023-02-21T09:28:57.598Z,13.50
2023-02-21T09:31:24.844Z,14.20
2023-02-21T09:33:51.488Z,14.70
2023-02-21T09:36:23.582Z,14.40
2023-02-21T09:38:51.732Z,14.40
2023-02-21T09:41:19.314Z,14.50
2023-02-21T09:43:50.061Z,14.80
2023-02-21T09:46:25.667Z,14.80
2023-02-21T09:48:53.790Z,14.90
2023-02-21T09:51:20.456Z,14.40
2023-02-21T09:53:48.533Z,14.30
2023-02-21T09:56:25.499Z,14.20
2023-02-21T09:58:52.350Z,14.10
2023-02-21T10:01:45.834Z,13.70
2023-02-21T10:04:50.443Z,13.30
2023-02-21T10:07:24.210Z,13.30
2023-02-21T10:09:56.236Z,13.30
2023-02-21T10:12:31.223Z,13.30
2023-02-21T10:15:35.084Z,13.30
2023-02-21T10:18:13.786Z,12.80
2023-02-21T10:20:47.869Z,12.40
2023-02-21T10:23:25.104Z,12.30
2023-02-21T10:25:56.887Z,12.10
2023-02-21T10:28:25.342Z,11.90
2023-02-21T10:31:14.645Z,11.80
2023-02-21T10:33:41.701Z,11.80
2023-02-21T10:36:13.557Z,11.90
2023-02-21T10:38:45.522Z,11.70
2023-02-21T10:41:12.790Z,11.70
2023-02-21T10:43:52.087Z,11.70
2023-02-21T10:46:52.128Z,11.70
2023-02-21T10:49:31.538Z,11.90
2023-02-21T10:52:13.453Z,12.40
2023-02-21T10:54:40.774Z,12.90
2023-02-21T10:57:11.609Z,13.70
2023-02-21T10:59:42.554Z,14.20
2023-02-21T11:02:29.300Z,14.90
2023-02-21T11:05:07.569Z,15.80
2023-02-21T11:07:34.923Z,17.10
2023-02-21T11:10:01.548Z,18.50
2023-02-21T11:12:32.178Z,19.30
2023-02-21T11:14:59.020Z,19.90
2023-02-21T11:17:31.125Z,21.40
2023-02-21T11:20:17.837Z,21.00
2023-02-21T11:22:47.176Z,20.20
2023-02-21T11:25:39.443Z,20.00
2023-02-21T11:28:10.491Z,20.00
2023-02-21T11:30:40.380Z,19.70
2023-02-21T11:33:08.950Z,18.90
2023-02-21T11:35:42.111Z,18.80
2023-02-21T11:38:31.670Z,18.40
2023-02-21T11:40:58.296Z,18.90
2023-02-21T11:43:28.832Z,19.70
2023-02-21T11:46:20.882Z,20.00
2023-02-21T11:49:04.830Z,20.30
2023-02-21T11:51:39.529Z,19.70
2023-02-21T11:54:15.928Z,20.00
2023-02-21T11:57:07.845Z,21.10
2023-02-21T11:59:46.615Z,23.10
2023-02-21T12:02:28.177Z,23.30
2023-02-21T12:05:24.399Z,22.20
2023-02-21T12:08:27.790Z,20.90
2023-02-21T12:11:27.638Z,19.60
2023-02-21T12:14:18.558Z,18.50
2023-02-21T12:17:05.503Z,17.50
2023-02-21T12:20:18.648Z,16.80
2023-02-21T12:26:37.407Z,16.00
2023-02-21T12:29:25.773Z,15.60
2023-02-21T12:32:24.507Z,15.20
2023-02-21T12:35:07.809Z,14.80
2023-02-21T12:37:52.139Z,14.70
2023-02-21T12:40:37.731Z,14.50
2023-02-21T12:43:31.532Z,14.30
2023-02-21T12:46:16.819Z,14.10
2023-02-21T12:49:05.457Z,13.90
2023-02-21T12:51:42.399Z,14.10
2023-02-21T12:54:16.534Z,14.00
2023-02-21T12:57:05.185Z,13.80
2023-02-21T12:59:58.218Z,13.80
2023-02-21T13:03:02.839Z,13.80
2023-02-21T13:05:50.297Z,13.70
2023-02-21T13:08:25.240Z,13.70
2023-02-21T13:11:10.179Z,13.70
2023-02-21T13:13:36.905Z,13.40
2023-02-21T13:16:07.810Z,13.20
2023-02-21T13:18:46.230Z,13.10
2023-02-21T13:21:30.946Z,13.30
2023-02-21T13:24:31.722Z,13.30
2023-02-21T13:27:29.223Z,13.30
2023-02-21T13:30:16.788Z,13.20
2023-02-21T13:32:55.752Z,13.30
2023-02-21T13:36:03.331Z,13.10
2023-02-21T13:38:32.133Z,13.10
2023-02-21T13:41:11.416Z,13.20
2023-02-21T13:43:47.045Z,13.40
2023-02-21T13:46:43.470Z,13.40
2023-02-21T13:49:47.634Z,13.50
2023-02-21T13:52:16.427Z,13.30
2023-02-21T13:55:11.277Z,13.50
2023-02-21T13:57:44.020Z,13.80
2023-02-21T14:00:39.960Z,13.80
2023-02-21T14:03:10.082Z,13.70
2023-02-21T14:05:52.173Z,13.80
2023-02-21T14:08:41.445Z,13.90
2023-02-21T14:11:09.812Z,13.80
2023-02-21T14:13:40.822Z,13.60
2023-02-21T14:16:07.673Z,13.60
2023-02-21T14:18:47.225Z,13.50
2023-02-21T14:21:24.880Z,13.30
2023-02-21T14:24:13.290Z,13.10
2023-02-21T14:26:46.062Z,13.10
2023-02-21T14:29:33.965Z,13.00
2023-02-21T14:32:04.059Z,13.00
2023-02-21T14:34:33.545Z,13.00
2023-02-21T14:37:05.716Z,13.00
2023-02-21T14:39:36.946Z,13.20
2023-02-21T14:42:25.534Z,13.30
2023-02-21T14:45:10.634Z,13.50
2023-02-21T14:47:57.532Z,13.70
2023-02-21T14:50:39.273Z,13.70
2023-02-21T14:53:05.992Z,13.40
2023-02-21T14:56:17.264Z,13.00
2023-02-21T14:59:15.303Z,12.70
2023-02-21T15:02:19.742Z,12.30
2023-02-21T15:04:51.157Z,12.00
2023-02-21T15:07:28.231Z,11.90
2023-02-21T15:10:13.852Z,11.80
2023-02-21T15:12:53.009Z,11.70
2023-02-21T15:15:29.938Z,11.60
2023-02-21T15:18:13.156Z,11.60
2023-02-21T15:20:42.346Z,11.70
2023-02-21T15:23:16.039Z,11.80
2023-02-21T15:25:44.277Z,11.70
2023-02-21T15:28:40.512Z,11.70
2023-02-21T15:31:10.486Z,11.60
2023-02-21T15:33:39.486Z,11.50
2023-02-21T15:36:14.436Z,11.30
2023-02-21T15:38:52.964Z,11.30
2023-02-21T15:41:36.121Z,11.30
2023-02-21T15:44:26.437Z,11.30
2023-02-21T15:47:17.871Z,11.30
2023-02-21T15:50:13.077Z,11.20
2023-02-21T15:52:42.681Z,11.10
2023-02-21T15:55:18.668Z,11.10
2023-02-21T15:57:46.990Z,11.10
2023-02-21T16:00:16.772Z,11.10
2023-02-21T16:02:43.692Z,11.00
2023-02-21T16:05:30.700Z,10.90
2023-02-21T16:08:02.265Z,10.80
2023-02-21T16:10:28.922Z,10.70
2023-02-21T16:13:02.364Z,10.60
2023-02-21T16:15:33.344Z,10.60
2023-02-21T16:18:03.752Z,10.50
2023-02-21T16:20:33.822Z,10.50
2023-02-21T16:23:19.266Z,10.40
2023-02-21T16:26:09.072Z,10.30
2023-02-21T16:28:40.714Z,10.20
2023-02-21T16:31:24.795Z,10.10
2023-02-21T16:33:51.823Z,10.00
2023-02-21T16:36:30.317Z,9.80
2023-02-21T16:38:58.574Z,9.80
2023-02-21T16:41:25.863Z,9.80
2023-02-21T16:43:52.752Z,9.70
2023-02-21T16:46:30.120Z,9.80
2023-02-21T16:48:59.086Z,9.80
2023-02-21T16:51:33.299Z,9.80
2023-02-21T16:54:00.196Z,9.80
2023-02-21T16:56:26.842Z,9.80
2023-02-21T16:58:55.657Z,9.80
2023-02-21T17:01:28.776Z,9.80
2023-02-21T17:03:55.816Z,9.70
2023-02-21T17:06:27.737Z,9.70
2023-02-21T17:08:54.596Z,9.70
2023-02-21T17:11:21.354Z,9.70
2023-02-21T17:13:48.219Z,9.70
2023-02-21T17:16:14.864Z,9.70
2023-02-21T17:18:43.308Z,9.60
2023-02-21T17:21:10.195Z,9.60
2023-02-21T17:23:37.394Z,9.60
2023-02-21T17:26:04.611Z,9.60
2023-02-21T17:28:31.630Z,9.50
2023-02-21T17:30:58.358Z,9.50
2023-02-21T17:33:25.206Z,9.50
2023-02-21T17:35:53.406Z,9.50
2023-02-21T17:38:20.270Z,9.50
2023-02-21T17:40:46.967Z,9.50
2023-02-21T17:43:15.916Z,9.50
2023-02-21T17:45:42.824Z,9.50
2023-02-21T17:48:09.497Z,9.50
2023-02-21T17:50:36.422Z,9.50
2023-02-21T17:53:03.112Z,9.50
2023-02-21T17:55:30.229Z,9.60
2023-02-21T17:57:57.549Z,9.60
2023-02-21T18:00:27.083Z,9.60
2023-02-21T18:02:55.309Z,9.60
2023-02-21T18:05:22.594Z,9.50
2023-02-21T18:07:54.089Z,9.50
2023-02-21T18:10:22.980Z,9.50
2023-02-21T18:12:51.332Z,9.50
2023-02-21T18:15:21.323Z,9.50
2023-02-21T18:17:47.953Z,9.60
2023-02-21T18:20:15.936Z,9.50
2023-02-21T18:22:46.162Z,9.50
2023-02-21T18:25:16.614Z,9.50
2023-02-21T18:27:43.655Z,9.50
2023-02-21T18:30:11.091Z,9.50
2023-02-21T18:32:38.146Z,9.50
2023-02-21T18:35:05.319Z,9.50
2023-02-21T18:37:31.987Z,9.50
2023-02-21T18:39:58.600Z,9.50
2023-02-21T18:42:25.472Z,9.50
2023-02-21T18:44:52.297Z,9.50
2023-02-21T18:47:19.829Z,9.50
2023-02-21T18:49:48.036Z,9.50
2023-02-21T18:52:16.199Z,9.40
2023-02-21T18:54:45.209Z,9.40
2023-02-21T18:57:12.476Z,9.40
2023-02-21T18:59:39.116Z,9.40
2023-02-21T19:02:06.817Z,9.40
2023-02-21T19:04:33.791Z,9.30
2023-02-21T19:07:18.752Z,9.30
2023-02-21T19:09:47.103Z,9.30
2023-02-21T19:12:13.819Z,9.30
2023-02-21T19:14:40.568Z,9.30
2023-02-21T19:17:08.715Z,9.20
2023-02-21T19:19:38.782Z,9.20
2023-02-21T19:22:06.226Z,9.20
2023-02-21T19:24:32.894Z,9.30
2023-02-21T19:26:59.793Z,9.20
2023-02-21T19:29:26.738Z,9.20
2023-02-21T19:31:54.030Z,9.20
2023-02-21T19:34:20.891Z,9.20
2023-02-21T19:36:47.742Z,9.20
2023-02-21T19:39:14.391Z,9.20
2023-02-21T19:41:41.258Z,9.10
2023-02-21T19:44:08.740Z,9.10
2023-02-21T19:46:35.529Z,9.20
2023-02-21T19:49:02.467Z,9.10
2023-02-21T19:51:31.368Z,9.10
2023-02-21T19:53:59.354Z,9.10
2023-02-21T19:56:27.569Z,9.10
2023-02-21T19:58:54.338Z,9.10
2023-02-21T20:01:21.823Z,9.10
2023-02-21T20:03:50.097Z,9.10
2023-02-21T20:06:17.368Z,9.10
2023-02-21T20:08:48.428Z,9.10
2023-02-21T20:11:18.088Z,9.20
2023-02-21T20:13:45.057Z,9.10
2023-02-21T20:16:15.243Z,9.10
2023-02-21T20:18:42.731Z,9.10
2023-02-21T20:21:09.555Z,9.00
2023-02-21T20:23:36.444Z,9.00
2023-02-21T20:26:03.695Z,9.00
2023-02-21T20:28:30.309Z,8.90
2023-02-21T20:30:57.228Z,8.90
2023-02-21T20:33:24.676Z,8.90
2023-02-21T20:35:52.104Z,8.90
2023-02-21T20:38:19.917Z,8.90
2023-02-21T20:40:47.014Z,8.90
2023-02-21T20:43:14.050Z,8.90
2023-02-21T20:45:40.999Z,8.80
2023-02-21T20:48:11.256Z,8.80
2023-02-21T20:50:38.722Z,8.80
2023-02-21T20:53:05.665Z,8.80
2023-02-21T20:55:32.602Z,8.80
2023-02-21T20:57:59.483Z,8.80
2023-02-21T21:00:30.140Z,8.80
2023-02-21T21:03:19.913Z,8.70
2023-02-21T21:05:50.807Z,8.70
2023-02-21T21:08:17.427Z,8.70
2023-02-21T21:10:48.714Z,8.70
2023-02-21T21:13:16.625Z,8.70
2023-02-21T21:15:43.954Z,8.60
2023-02-21T21:18:10.777Z,8.60
2023-02-21T21:20:38.936Z,8.60
2023-02-21T21:23:07.282Z,8.60
2023-02-21T21:25:34.846Z,8.60
2023-02-21T21:28:02.838Z,8.60
2023-02-21T21:30:30.541Z,8.60
2023-02-21T21:32:57.913Z,8.60
2023-02-21T21:35:29.849Z,8.60
2023-02-21T21:37:58.422Z,8.60
2023-02-21T21:40:26.969Z,8.60
2023-02-21T21:42:54.701Z,8.50
2023-02-21T21:45:27.433Z,8.50
2023-02-21T21:48:01.464Z,8.50
2023-02-21T21:50:28.169Z,8.50
2023-02-21T21:52:58.954Z,8.50
2023-02-21T21:55:28.540Z,8.50
2023-02-21T21:57:56.422Z,8.50
2023-02-21T22:00:27.048Z,8.40
2023-02-21T22:02:59.694Z,8.40
2023-02-21T22:05:28.511Z,8.40
2023-02-21T22:07:56.511Z,8.40
2023-02-21T22:10:25.562Z,8.30
2023-02-21T22:12:54.440Z,8.30
2023-02-21T22:15:24.621Z,8.30
2023-02-21T22:17:52.053Z,8.30
2023-02-21T22:20:20.709Z,8.30
2023-02-21T22:22:49.899Z,8.30
2023-02-21T22:25:19.048Z,8.30
2023-02-21T22:27:49.170Z,8.20
2023-02-21T22:30:19.109Z,8.20
2023-02-21T22:32:47.232Z,8.20
2023-02-21T22:35:19.815Z,8.10
2023-02-21T22:37:51.746Z,8.10
2023-02-21T22:40:27.185Z,8.00
2023-02-21T22:42:55.725Z,8.00
2023-02-21T22:45:24.200Z,8.00
2023-02-21T22:47:52.398Z,8.00
2023-02-21T22:50:23.538Z,8.00
2023-02-21T22:52:56.091Z,8.00
2023-02-21T22:55:25.045Z,7.90
2023-02-21T22:57:56.952Z,7.90
2023-02-21T23:00:33.732Z,7.80
2023-02-21T23:03:02.764Z,7.80
2023-02-21T23:05:29.483Z,7.70
2023-02-21T23:08:00.367Z,7.70
2023-02-21T23:10:28.318Z,7.70
2023-02-21T23:13:00.626Z,7.60
2023-02-21T23:15:27.936Z,7.60
2023-02-21T23:17:55.732Z,7.50
2023-02-21T23:20:26.650Z,7.50
2023-02-21T23:22:54.942Z,7.40
2023-02-21T23:25:25.494Z,7.40
2023-02-21T23:27:58.753Z,7.30
2023-02-21T23:30:27.287Z,7.30
2023-02-21T23:32:55.930Z,7.30
2023-02-21T23:35:22.857Z,7.20
2023-02-21T23:37:53.533Z,7.20
2023-02-21T23:40:23.333Z,7.00
2023-02-21T23:42:54.523Z,6.90
2023-02-21T23:45:24.746Z,6.80
2023-02-21T23:47:53.558Z,6.70
2023-02-21T23:50:30.303Z,6.50
2023-02-21T23:53:02.463Z,6.40
2023-02-21T23:55:29.957Z,6.20
2023-02-21T23:58:03.809Z,6.10
